sensor_id;sensor_type;location;lat;lon;timestamp;P1;durP1;ratioP1;P2;durP2;ratioP2
75814;SDS011;70031;45.570;14.228;2023-07-28T00:01:20;0.98;;;0.70;;
75814;SDS011;70031;45.570;14.228;2023-07-28T00:03:20;1.00;;;0.70;;
75814;SDS011;70031;45.570;14.228;2023-07-28T00:05:20;2.15;;;0.93;;
75814;SDS011;70031;45.570;14.228;2023-07-28T00:07:21;0.80;;;0.60;;
75814;SDS011;70031;45.570;14.228;2023-07-28T00:09:21;0.90;;;0.50;;
75814;SDS011;70031;45.570;14.228;2023-07-28T00:11:23;1.25;;;0.63;;
75814;SDS011;70031;45.570;14.228;2023-07-28T00:13:23;1.95;;;0.80;;
75814;SDS011;70031;45.570;14.228;2023-07-28T00:15:23;1.55;;;0.88;;
75814;SDS011;70031;45.570;14.228;2023-07-28T00:17:24;2.40;;;1.08;;
75814;SDS011;70031;45.570;14.228;2023-07-28T00:19:24;2.00;;;0.80;;
75814;SDS011;70031;45.570;14.228;2023-07-28T00:21:25;1.83;;;0.90;;
75814;SDS011;70031;45.570;14.228;2023-07-28T00:23:26;2.40;;;0.80;;
75814;SDS011;70031;45.570;14.228;2023-07-28T00:25:26;2.13;;;0.90;;
75814;SDS011;70031;45.570;14.228;2023-07-28T00:27:27;1.45;;;0.80;;
75814;SDS011;70031;45.570;14.228;2023-07-28T00:29:27;3.05;;;0.90;;
75814;SDS011;70031;45.570;14.228;2023-07-28T00:31:27;1.42;;;0.80;;
75814;SDS011;70031;45.570;14.228;2023-07-28T00:33:27;1.98;;;0.98;;
75814;SDS011;70031;45.570;14.228;2023-07-28T00:35:28;0.85;;;0.57;;
75814;SDS011;70031;45.570;14.228;2023-07-28T00:37:28;1.05;;;0.50;;
75814;SDS011;70031;45.570;14.228;2023-07-28T00:39:29;1.05;;;0.68;;
75814;SDS011;70031;45.570;14.228;2023-07-28T00:41:29;1.10;;;0.60;;
75814;SDS011;70031;45.570;14.228;2023-07-28T00:43:29;0.70;;;0.55;;
75814;SDS011;70031;45.570;14.228;2023-07-28T00:45:29;1.25;;;0.60;;
75814;SDS011;70031;45.570;14.228;2023-07-28T00:49:32;2.75;;;0.98;;
75814;SDS011;70031;45.570;14.228;2023-07-28T00:51:34;0.60;;;0.50;;
75814;SDS011;70031;45.570;14.228;2023-07-28T00:53:37;1.55;;;0.70;;
75814;SDS011;70031;45.570;14.228;2023-07-28T00:55:37;4.03;;;0.85;;
75814;SDS011;70031;45.570;14.228;2023-07-28T00:57:38;2.50;;;0.65;;
75814;SDS011;70031;45.570;14.228;2023-07-28T00:59:39;2.83;;;1.00;;
75814;SDS011;70031;45.570;14.228;2023-07-28T01:01:39;1.80;;;1.00;;
75814;SDS011;70031;45.570;14.228;2023-07-28T01:03:40;1.35;;;0.80;;
75814;SDS011;70031;45.570;14.228;2023-07-28T01:07:59;3.47;;;0.95;;
75814;SDS011;70031;45.570;14.228;2023-07-28T01:10:08;1.63;;;1.00;;
75814;SDS011;70031;45.570;14.228;2023-07-28T01:12:13;1.83;;;0.70;;
75814;SDS011;70031;45.570;14.228;2023-07-28T01:14:13;1.73;;;1.02;;
75814;SDS011;70031;45.570;14.228;2023-07-28T01:16:13;1.58;;;0.90;;
75814;SDS011;70031;45.570;14.228;2023-07-28T01:18:14;1.38;;;0.63;;
75814;SDS011;70031;45.570;14.228;2023-07-28T01:20:15;0.50;;;0.45;;
75814;SDS011;70031;45.570;14.228;2023-07-28T01:22:20;1.90;;;0.70;;
75814;SDS011;70031;45.570;14.228;2023-07-28T01:24:23;1.08;;;0.65;;
75814;SDS011;70031;45.570;14.228;2023-07-28T01:26:34;0.93;;;0.50;;
75814;SDS011;70031;45.570;14.228;2023-07-28T01:28:36;2.50;;;0.90;;
75814;SDS011;70031;45.570;14.228;2023-07-28T01:30:38;5.65;;;1.08;;
75814;SDS011;70031;45.570;14.228;2023-07-28T01:32:38;1.35;;;0.60;;
75814;SDS011;70031;45.570;14.228;2023-07-28T01:34:39;0.82;;;0.77;;
75814;SDS011;70031;45.570;14.228;2023-07-28T01:36:39;1.65;;;0.85;;
75814;SDS011;70031;45.570;14.228;2023-07-28T01:38:39;0.60;;;0.57;;
75814;SDS011;70031;45.570;14.228;2023-07-28T01:40:40;1.15;;;0.77;;
75814;SDS011;70031;45.570;14.228;2023-07-28T01:42:40;2.70;;;0.88;;
75814;SDS011;70031;45.570;14.228;2023-07-28T01:44:41;2.80;;;0.60;;
75814;SDS011;70031;45.570;14.228;2023-07-28T01:46:41;0.63;;;0.60;;
75814;SDS011;70031;45.570;14.228;2023-07-28T01:48:41;1.20;;;0.70;;
75814;SDS011;70031;45.570;14.228;2023-07-28T01:50:42;1.33;;;0.82;;
75814;SDS011;70031;45.570;14.228;2023-07-28T01:52:42;1.33;;;0.68;;
75814;SDS011;70031;45.570;14.228;2023-07-28T01:54:43;1.48;;;0.80;;
75814;SDS011;70031;45.570;14.228;2023-07-28T01:56:43;4.43;;;0.95;;
75814;SDS011;70031;45.570;14.228;2023-07-28T01:58:43;2.60;;;0.80;;
75814;SDS011;70031;45.570;14.228;2023-07-28T02:00:44;1.20;;;0.63;;
75814;SDS011;70031;45.570;14.228;2023-07-28T02:02:46;0.75;;;0.52;;
75814;SDS011;70031;45.570;14.228;2023-07-28T02:04:47;0.90;;;0.63;;
75814;SDS011;70031;45.570;14.228;2023-07-28T02:06:47;0.95;;;0.60;;
75814;SDS011;70031;45.570;14.228;2023-07-28T02:08:48;0.90;;;0.70;;
75814;SDS011;70031;45.570;14.228;2023-07-28T02:10:48;0.80;;;0.60;;
75814;SDS011;70031;45.570;14.228;2023-07-28T02:12:49;2.03;;;0.80;;
75814;SDS011;70031;45.570;14.228;2023-07-28T02:14:51;3.72;;;1.20;;
75814;SDS011;70031;45.570;14.228;2023-07-28T02:16:51;1.27;;;0.60;;
75814;SDS011;70031;45.570;14.228;2023-07-28T02:18:51;1.60;;;0.90;;
75814;SDS011;70031;45.570;14.228;2023-07-28T02:20:52;2.30;;;1.10;;
75814;SDS011;70031;45.570;14.228;2023-07-28T02:22:52;2.63;;;0.70;;
75814;SDS011;70031;45.570;14.228;2023-07-28T02:24:52;1.42;;;0.80;;
75814;SDS011;70031;45.570;14.228;2023-07-28T02:26:53;1.23;;;0.80;;
75814;SDS011;70031;45.570;14.228;2023-07-28T02:28:54;2.85;;;0.90;;
75814;SDS011;70031;45.570;14.228;2023-07-28T02:30:55;1.20;;;0.70;;
75814;SDS011;70031;45.570;14.228;2023-07-28T02:32:55;1.23;;;0.80;;
75814;SDS011;70031;45.570;14.228;2023-07-28T02:34:55;1.52;;;0.93;;
75814;SDS011;70031;45.570;14.228;2023-07-28T02:36:57;1.23;;;0.70;;
75814;SDS011;70031;45.570;14.228;2023-07-28T02:38:57;0.88;;;0.50;;
75814;SDS011;70031;45.570;14.228;2023-07-28T02:40:57;1.65;;;0.80;;
75814;SDS011;70031;45.570;14.228;2023-07-28T02:42:58;1.20;;;0.60;;
75814;SDS011;70031;45.570;14.228;2023-07-28T02:44:58;1.27;;;0.80;;
75814;SDS011;70031;45.570;14.228;2023-07-28T02:46:58;1.35;;;0.75;;
75814;SDS011;70031;45.570;14.228;2023-07-28T02:48:59;1.50;;;0.80;;
75814;SDS011;70031;45.570;14.228;2023-07-28T02:50:59;1.77;;;0.80;;
75814;SDS011;70031;45.570;14.228;2023-07-28T02:52:59;0.93;;;0.73;;
75814;SDS011;70031;45.570;14.228;2023-07-28T02:55:00;3.35;;;0.80;;
75814;SDS011;70031;45.570;14.228;2023-07-28T02:57:00;1.30;;;0.70;;
75814;SDS011;70031;45.570;14.228;2023-07-28T02:59:00;1.95;;;0.82;;
75814;SDS011;70031;45.570;14.228;2023-07-28T03:01:01;1.05;;;0.60;;
75814;SDS011;70031;45.570;14.228;2023-07-28T03:03:01;0.47;;;0.45;;
75814;SDS011;70031;45.570;14.228;2023-07-28T03:05:02;1.92;;;0.93;;
75814;SDS011;70031;45.570;14.228;2023-07-28T03:07:04;1.15;;;0.60;;
75814;SDS011;70031;45.570;14.228;2023-07-28T03:09:04;1.25;;;0.80;;
75814;SDS011;70031;45.570;14.228;2023-07-28T03:11:04;1.80;;;0.85;;
75814;SDS011;70031;45.570;14.228;2023-07-28T03:13:05;0.60;;;0.57;;
75814;SDS011;70031;45.570;14.228;2023-07-28T03:15:05;3.25;;;1.38;;
75814;SDS011;70031;45.570;14.228;2023-07-28T03:17:06;5.65;;;1.20;;
75814;SDS011;70031;45.570;14.228;2023-07-28T03:19:07;2.08;;;1.00;;
75814;SDS011;70031;45.570;14.228;2023-07-28T03:21:08;1.13;;;0.77;;
75814;SDS011;70031;45.570;14.228;2023-07-28T03:23:09;1.90;;;0.95;;
75814;SDS011;70031;45.570;14.228;2023-07-28T03:25:09;2.70;;;1.15;;
75814;SDS011;70031;45.570;14.228;2023-07-28T03:27:11;3.60;;;2.50;;
75814;SDS011;70031;45.570;14.228;2023-07-28T03:29:11;1.45;;;1.08;;
75814;SDS011;70031;45.570;14.228;2023-07-28T03:31:12;2.53;;;1.15;;
75814;SDS011;70031;45.570;14.228;2023-07-28T03:33:12;4.13;;;2.17;;
75814;SDS011;70031;45.570;14.228;2023-07-28T03:35:12;2.63;;;1.52;;
75814;SDS011;70031;45.570;14.228;2023-07-28T03:37:13;3.13;;;1.83;;
75814;SDS011;70031;45.570;14.228;2023-07-28T03:39:13;1.83;;;1.17;;
75814;SDS011;70031;45.570;14.228;2023-07-28T03:41:14;1.80;;;1.17;;
75814;SDS011;70031;45.570;14.228;2023-07-28T03:43:14;0.80;;;0.60;;
75814;SDS011;70031;45.570;14.228;2023-07-28T03:45:15;5.85;;;2.50;;
75814;SDS011;70031;45.570;14.228;2023-07-28T03:47:15;4.85;;;2.88;;
75814;SDS011;70031;45.570;14.228;2023-07-28T03:49:16;5.22;;;2.28;;
75814;SDS011;70031;45.570;14.228;2023-07-28T03:51:16;2.13;;;1.45;;
75814;SDS011;70031;45.570;14.228;2023-07-28T03:53:16;1.85;;;1.00;;
75814;SDS011;70031;45.570;14.228;2023-07-28T03:55:17;4.22;;;0.80;;
75814;SDS011;70031;45.570;14.228;2023-07-28T03:57:17;1.48;;;0.85;;
75814;SDS011;70031;45.570;14.228;2023-07-28T03:59:18;1.38;;;0.90;;
75814;SDS011;70031;45.570;14.228;2023-07-28T04:01:18;1.00;;;0.70;;
75814;SDS011;70031;45.570;14.228;2023-07-28T04:03:19;1.23;;;0.63;;
75814;SDS011;70031;45.570;14.228;2023-07-28T04:05:20;1.10;;;0.73;;
75814;SDS011;70031;45.570;14.228;2023-07-28T04:07:20;1.15;;;0.70;;
75814;SDS011;70031;45.570;14.228;2023-07-28T04:09:21;1.10;;;0.80;;
75814;SDS011;70031;45.570;14.228;2023-07-28T04:11:21;1.30;;;0.73;;
75814;SDS011;70031;45.570;14.228;2023-07-28T04:13:22;2.28;;;0.90;;
75814;SDS011;70031;45.570;14.228;2023-07-28T04:15:22;1.25;;;0.80;;
75814;SDS011;70031;45.570;14.228;2023-07-28T04:17:23;1.83;;;0.80;;
75814;SDS011;70031;45.570;14.228;2023-07-28T04:19:23;2.42;;;0.85;;
75814;SDS011;70031;45.570;14.228;2023-07-28T04:21:24;0.90;;;0.70;;
75814;SDS011;70031;45.570;14.228;2023-07-28T04:23:24;2.20;;;0.68;;
75814;SDS011;70031;45.570;14.228;2023-07-28T04:25:24;2.15;;;1.00;;
75814;SDS011;70031;45.570;14.228;2023-07-28T04:27:25;1.38;;;0.95;;
75814;SDS011;70031;45.570;14.228;2023-07-28T04:29:25;1.63;;;1.02;;
75814;SDS011;70031;45.570;14.228;2023-07-28T04:31:27;2.25;;;0.75;;
75814;SDS011;70031;45.570;14.228;2023-07-28T04:33:27;3.25;;;1.05;;
75814;SDS011;70031;45.570;14.228;2023-07-28T04:35:29;1.73;;;0.82;;
75814;SDS011;70031;45.570;14.228;2023-07-28T04:39:30;0.73;;;0.57;;
75814;SDS011;70031;45.570;14.228;2023-07-28T04:41:31;1.15;;;0.90;;
75814;SDS011;70031;45.570;14.228;2023-07-28T04:43:31;1.55;;;0.90;;
75814;SDS011;70031;45.570;14.228;2023-07-28T04:45:31;2.83;;;1.35;;
75814;SDS011;70031;45.570;14.228;2023-07-28T04:47:32;1.13;;;0.80;;
75814;SDS011;70031;45.570;14.228;2023-07-28T04:49:32;1.92;;;0.75;;
75814;SDS011;70031;45.570;14.228;2023-07-28T04:51:32;1.42;;;0.73;;
75814;SDS011;70031;45.570;14.228;2023-07-28T04:53:33;1.88;;;0.90;;
75814;SDS011;70031;45.570;14.228;2023-07-28T04:55:33;0.90;;;0.70;;
75814;SDS011;70031;45.570;14.228;2023-07-28T04:57:33;4.25;;;1.20;;
75814;SDS011;70031;45.570;14.228;2023-07-28T04:59:34;2.03;;;1.15;;
75814;SDS011;70031;45.570;14.228;2023-07-28T05:01:34;2.22;;;1.10;;
75814;SDS011;70031;45.570;14.228;2023-07-28T05:03:34;2.97;;;1.23;;
75814;SDS011;70031;45.570;14.228;2023-07-28T05:05:35;2.55;;;1.08;;
75814;SDS011;70031;45.570;14.228;2023-07-28T05:07:35;3.92;;;1.30;;
75814;SDS011;70031;45.570;14.228;2023-07-28T05:09:36;4.18;;;1.30;;
75814;SDS011;70031;45.570;14.228;2023-07-28T05:11:37;1.73;;;0.95;;
75814;SDS011;70031;45.570;14.228;2023-07-28T05:13:37;2.03;;;1.20;;
75814;SDS011;70031;45.570;14.228;2023-07-28T05:15:37;1.55;;;1.00;;
75814;SDS011;70031;45.570;14.228;2023-07-28T05:17:38;1.48;;;1.08;;
75814;SDS011;70031;45.570;14.228;2023-07-28T05:19:38;1.67;;;1.00;;
75814;SDS011;70031;45.570;14.228;2023-07-28T05:21:38;1.55;;;0.98;;
75814;SDS011;70031;45.570;14.228;2023-07-28T05:23:39;1.27;;;0.90;;
75814;SDS011;70031;45.570;14.228;2023-07-28T05:25:39;1.48;;;0.90;;
75814;SDS011;70031;45.570;14.228;2023-07-28T05:27:40;2.13;;;1.15;;
75814;SDS011;70031;45.570;14.228;2023-07-28T05:29:41;4.43;;;1.30;;
75814;SDS011;70031;45.570;14.228;2023-07-28T05:31:41;2.60;;;1.50;;
75814;SDS011;70031;45.570;14.228;2023-07-28T05:33:41;3.70;;;1.83;;
75814;SDS011;70031;45.570;14.228;2023-07-28T05:35:42;3.78;;;1.73;;
75814;SDS011;70031;45.570;14.228;2023-07-28T05:37:42;2.42;;;1.30;;
75814;SDS011;70031;45.570;14.228;2023-07-28T05:39:43;4.47;;;1.55;;
75814;SDS011;70031;45.570;14.228;2023-07-28T05:41:44;3.15;;;1.70;;
75814;SDS011;70031;45.570;14.228;2023-07-28T05:43:44;2.05;;;1.58;;
75814;SDS011;70031;45.570;14.228;2023-07-28T05:45:47;4.15;;;1.42;;
75814;SDS011;70031;45.570;14.228;2023-07-28T05:47:47;3.03;;;1.63;;
75814;SDS011;70031;45.570;14.228;2023-07-28T05:49:48;2.05;;;1.40;;
75814;SDS011;70031;45.570;14.228;2023-07-28T05:51:48;5.15;;;3.22;;
75814;SDS011;70031;45.570;14.228;2023-07-28T05:53:49;5.15;;;1.80;;
75814;SDS011;70031;45.570;14.228;2023-07-28T05:55:50;2.33;;;1.60;;
75814;SDS011;70031;45.570;14.228;2023-07-28T05:57:50;6.28;;;1.60;;
75814;SDS011;70031;45.570;14.228;2023-07-28T05:59:51;4.72;;;1.63;;
75814;SDS011;70031;45.570;14.228;2023-07-28T06:01:51;5.15;;;2.78;;
75814;SDS011;70031;45.570;14.228;2023-07-28T06:03:53;7.28;;;3.78;;
75814;SDS011;70031;45.570;14.228;2023-07-28T06:05:58;7.47;;;3.83;;
75814;SDS011;70031;45.570;14.228;2023-07-28T06:07:59;5.50;;;3.85;;
75814;SDS011;70031;45.570;14.228;2023-07-28T06:09:59;7.15;;;3.78;;
75814;SDS011;70031;45.570;14.228;2023-07-28T06:12:00;7.45;;;4.38;;
75814;SDS011;70031;45.570;14.228;2023-07-28T06:14:00;7.30;;;4.80;;
75814;SDS011;70031;45.570;14.228;2023-07-28T06:16:00;8.63;;;5.72;;
75814;SDS011;70031;45.570;14.228;2023-07-28T06:18:01;7.45;;;3.63;;
75814;SDS011;70031;45.570;14.228;2023-07-28T06:20:02;7.13;;;4.93;;
75814;SDS011;70031;45.570;14.228;2023-07-28T06:22:03;5.68;;;3.22;;
75814;SDS011;70031;45.570;14.228;2023-07-28T06:24:03;6.50;;;3.40;;
75814;SDS011;70031;45.570;14.228;2023-07-28T06:26:04;4.03;;;2.67;;
75814;SDS011;70031;45.570;14.228;2023-07-28T06:28:04;6.63;;;2.10;;
75814;SDS011;70031;45.570;14.228;2023-07-28T06:30:05;3.83;;;2.10;;
75814;SDS011;70031;45.570;14.228;2023-07-28T06:32:06;2.85;;;1.08;;
75814;SDS011;70031;45.570;14.228;2023-07-28T06:34:06;6.53;;;1.20;;
75814;SDS011;70031;45.570;14.228;2023-07-28T06:36:07;2.97;;;1.35;;
75814;SDS011;70031;45.570;14.228;2023-07-28T06:38:07;2.15;;;1.15;;
75814;SDS011;70031;45.570;14.228;2023-07-28T06:40:08;3.35;;;1.30;;
75814;SDS011;70031;45.570;14.228;2023-07-28T06:42:09;2.67;;;1.23;;
75814;SDS011;70031;45.570;14.228;2023-07-28T06:44:09;3.95;;;1.40;;
75814;SDS011;70031;45.570;14.228;2023-07-28T06:46:10;1.40;;;1.00;;
75814;SDS011;70031;45.570;14.228;2023-07-28T06:48:10;3.60;;;0.82;;
75814;SDS011;70031;45.570;14.228;2023-07-28T06:50:10;2.33;;;1.20;;
75814;SDS011;70031;45.570;14.228;2023-07-28T06:52:11;5.22;;;1.40;;
75814;SDS011;70031;45.570;14.228;2023-07-28T06:54:12;3.45;;;1.50;;
75814;SDS011;70031;45.570;14.228;2023-07-28T06:56:12;3.67;;;1.70;;
75814;SDS011;70031;45.570;14.228;2023-07-28T06:58:13;3.85;;;1.42;;
75814;SDS011;70031;45.570;14.228;2023-07-28T07:00:13;2.92;;;1.40;;
75814;SDS011;70031;45.570;14.228;2023-07-28T07:02:14;2.97;;;1.60;;
75814;SDS011;70031;45.570;14.228;2023-07-28T07:04:15;2.97;;;1.65;;
75814;SDS011;70031;45.570;14.228;2023-07-28T07:06:16;2.90;;;1.70;;
75814;SDS011;70031;45.570;14.228;2023-07-28T07:08:17;3.03;;;1.38;;
75814;SDS011;70031;45.570;14.228;2023-07-28T07:10:17;6.95;;;2.13;;
75814;SDS011;70031;45.570;14.228;2023-07-28T07:12:17;4.30;;;1.42;;
75814;SDS011;70031;45.570;14.228;2023-07-28T07:14:19;1.98;;;1.50;;
75814;SDS011;70031;45.570;14.228;2023-07-28T07:16:19;1.60;;;1.08;;
75814;SDS011;70031;45.570;14.228;2023-07-28T07:18:20;3.60;;;1.33;;
75814;SDS011;70031;45.570;14.228;2023-07-28T07:20:20;2.20;;;0.77;;
75814;SDS011;70031;45.570;14.228;2023-07-28T07:22:20;1.65;;;0.80;;
75814;SDS011;70031;45.570;14.228;2023-07-28T07:24:21;1.77;;;0.90;;
75814;SDS011;70031;45.570;14.228;2023-07-28T07:26:21;2.55;;;1.00;;
75814;SDS011;70031;45.570;14.228;2023-07-28T07:28:21;2.22;;;1.08;;
75814;SDS011;70031;45.570;14.228;2023-07-28T07:30:22;1.33;;;0.73;;
75814;SDS011;70031;45.570;14.228;2023-07-28T07:32:23;3.00;;;0.90;;
75814;SDS011;70031;45.570;14.228;2023-07-28T07:34:23;2.28;;;0.90;;
75814;SDS011;70031;45.570;14.228;2023-07-28T07:36:24;1.48;;;0.90;;
75814;SDS011;70031;45.570;14.228;2023-07-28T07:38:24;1.48;;;0.70;;
75814;SDS011;70031;45.570;14.228;2023-07-28T07:40:24;1.52;;;0.70;;
75814;SDS011;70031;45.570;14.228;2023-07-28T07:42:25;2.65;;;0.73;;
75814;SDS011;70031;45.570;14.228;2023-07-28T07:44:25;2.03;;;0.73;;
75814;SDS011;70031;45.570;14.228;2023-07-28T07:46:27;0.88;;;0.65;;
75814;SDS011;70031;45.570;14.228;2023-07-28T07:48:27;2.15;;;0.90;;
75814;SDS011;70031;45.570;14.228;2023-07-28T07:50:27;0.93;;;0.70;;
75814;SDS011;70031;45.570;14.228;2023-07-28T07:52:28;2.25;;;0.75;;
75814;SDS011;70031;45.570;14.228;2023-07-28T07:54:28;0.88;;;0.65;;
75814;SDS011;70031;45.570;14.228;2023-07-28T07:56:28;0.70;;;0.70;;
75814;SDS011;70031;45.570;14.228;2023-07-28T07:58:29;1.75;;;1.08;;
75814;SDS011;70031;45.570;14.228;2023-07-28T08:00:30;1.50;;;0.80;;
75814;SDS011;70031;45.570;14.228;2023-07-28T08:02:30;2.78;;;0.80;;
75814;SDS011;70031;45.570;14.228;2023-07-28T08:04:31;1.30;;;0.88;;
75814;SDS011;70031;45.570;14.228;2023-07-28T08:06:31;1.50;;;0.75;;
75814;SDS011;70031;45.570;14.228;2023-07-28T08:08:31;0.80;;;0.70;;
75814;SDS011;70031;45.570;14.228;2023-07-28T08:10:32;1.55;;;0.80;;
75814;SDS011;70031;45.570;14.228;2023-07-28T08:12:33;2.03;;;0.95;;
75814;SDS011;70031;45.570;14.228;2023-07-28T08:14:34;2.08;;;1.00;;
75814;SDS011;70031;45.570;14.228;2023-07-28T08:16:34;3.22;;;0.60;;
75814;SDS011;70031;45.570;14.228;2023-07-28T08:18:35;1.58;;;0.60;;
75814;SDS011;70031;45.570;14.228;2023-07-28T08:20:35;1.65;;;0.60;;
75814;SDS011;70031;45.570;14.228;2023-07-28T08:22:35;0.85;;;0.60;;
75814;SDS011;70031;45.570;14.228;2023-07-28T08:24:36;1.83;;;0.70;;
75814;SDS011;70031;45.570;14.228;2023-07-28T08:26:36;2.13;;;0.90;;
75814;SDS011;70031;45.570;14.228;2023-07-28T08:28:37;2.08;;;0.60;;
75814;SDS011;70031;45.570;14.228;2023-07-28T08:30:37;1.00;;;0.60;;
75814;SDS011;70031;45.570;14.228;2023-07-28T08:32:38;1.15;;;0.60;;
75814;SDS011;70031;45.570;14.228;2023-07-28T08:34:38;1.08;;;0.60;;
75814;SDS011;70031;45.570;14.228;2023-07-28T08:36:39;1.00;;;0.60;;
75814;SDS011;70031;45.570;14.228;2023-07-28T08:38:39;0.50;;;0.47;;
75814;SDS011;70031;45.570;14.228;2023-07-28T08:40:39;1.33;;;0.70;;
75814;SDS011;70031;45.570;14.228;2023-07-28T08:42:40;0.80;;;0.70;;
75814;SDS011;70031;45.570;14.228;2023-07-28T08:44:41;0.93;;;0.60;;
75814;SDS011;70031;45.570;14.228;2023-07-28T08:46:41;0.90;;;0.50;;
75814;SDS011;70031;45.570;14.228;2023-07-28T08:48:44;2.10;;;0.85;;
75814;SDS011;70031;45.570;14.228;2023-07-28T08:50:45;1.08;;;0.73;;
75814;SDS011;70031;45.570;14.228;2023-07-28T08:52:46;2.75;;;0.70;;
75814;SDS011;70031;45.570;14.228;2023-07-28T08:54:49;0.88;;;0.60;;
75814;SDS011;70031;45.570;14.228;2023-07-28T08:56:50;4.35;;;0.80;;
75814;SDS011;70031;45.570;14.228;2023-07-28T08:58:56;1.80;;;0.90;;
75814;SDS011;70031;45.570;14.228;2023-07-28T09:00:58;1.60;;;0.47;;
75814;SDS011;70031;45.570;14.228;2023-07-28T09:03:01;1.33;;;0.70;;
75814;SDS011;70031;45.570;14.228;2023-07-28T09:05:02;1.50;;;0.73;;
75814;SDS011;70031;45.570;14.228;2023-07-28T09:07:04;0.88;;;0.65;;
75814;SDS011;70031;45.570;14.228;2023-07-28T09:09:06;1.30;;;0.80;;
75814;SDS011;70031;45.570;14.228;2023-07-28T09:11:07;1.43;;;1.00;;
75814;SDS011;70031;45.570;14.228;2023-07-28T09:13:10;0.85;;;0.60;;
75814;SDS011;70031;45.570;14.228;2023-07-28T09:15:14;4.93;;;0.88;;
75814;SDS011;70031;45.570;14.228;2023-07-28T09:17:16;0.80;;;0.70;;
75814;SDS011;70031;45.570;14.228;2023-07-28T09:19:19;3.97;;;1.00;;
75814;SDS011;70031;45.570;14.228;2023-07-28T09:21:20;2.00;;;0.80;;
75814;SDS011;70031;45.570;14.228;2023-07-28T09:23:30;1.73;;;0.77;;
75814;SDS011;70031;45.570;14.228;2023-07-28T09:25:31;0.70;;;0.60;;
75814;SDS011;70031;45.570;14.228;2023-07-28T09:27:32;2.58;;;0.82;;
75814;SDS011;70031;45.570;14.228;2023-07-28T09:29:33;1.65;;;0.60;;
75814;SDS011;70031;45.570;14.228;2023-07-28T09:31:35;3.33;;;0.82;;
75814;SDS011;70031;45.570;14.228;2023-07-28T09:33:35;0.98;;;0.70;;
75814;SDS011;70031;45.570;14.228;2023-07-28T09:35:42;1.20;;;0.70;;
75814;SDS011;70031;45.570;14.228;2023-07-28T09:37:50;1.48;;;0.75;;
75814;SDS011;70031;45.570;14.228;2023-07-28T09:39:52;2.90;;;0.77;;
75814;SDS011;70031;45.570;14.228;2023-07-28T09:41:53;1.35;;;0.70;;
75814;SDS011;70031;45.570;14.228;2023-07-28T09:43:57;3.08;;;0.65;;
75814;SDS011;70031;45.570;14.228;2023-07-28T09:45:58;0.93;;;0.68;;
75814;SDS011;70031;45.570;14.228;2023-07-28T09:47:59;3.55;;;0.70;;
75814;SDS011;70031;45.570;14.228;2023-07-28T09:50:02;1.27;;;0.70;;
75814;SDS011;70031;45.570;14.228;2023-07-28T09:52:05;1.73;;;0.82;;
75814;SDS011;70031;45.570;14.228;2023-07-28T09:54:12;1.70;;;0.70;;
75814;SDS011;70031;45.570;14.228;2023-07-28T09:56:16;1.48;;;0.80;;
75814;SDS011;70031;45.570;14.228;2023-07-28T09:58:19;0.65;;;0.60;;
75814;SDS011;70031;45.570;14.228;2023-07-28T10:00:22;0.82;;;0.63;;
75814;SDS011;70031;45.570;14.228;2023-07-28T10:02:23;1.38;;;0.60;;
75814;SDS011;70031;45.570;14.228;2023-07-28T10:04:24;1.20;;;0.73;;
75814;SDS011;70031;45.570;14.228;2023-07-28T10:06:25;1.52;;;0.93;;
75814;SDS011;70031;45.570;14.228;2023-07-28T10:08:26;1.02;;;0.63;;
75814;SDS011;70031;45.570;14.228;2023-07-28T10:10:27;0.80;;;0.70;;
75814;SDS011;70031;45.570;14.228;2023-07-28T10:12:28;1.25;;;0.60;;
75814;SDS011;70031;45.570;14.228;2023-07-28T10:14:35;0.60;;;0.50;;
75814;SDS011;70031;45.570;14.228;2023-07-28T10:16:37;1.63;;;0.80;;
75814;SDS011;70031;45.570;14.228;2023-07-28T10:18:39;0.90;;;0.70;;
75814;SDS011;70031;45.570;14.228;2023-07-28T10:20:42;1.63;;;0.77;;
75814;SDS011;70031;45.570;14.228;2023-07-28T10:22:43;1.27;;;0.65;;
75814;SDS011;70031;45.570;14.228;2023-07-28T10:24:54;1.00;;;0.80;;
75814;SDS011;70031;45.570;14.228;2023-07-28T10:26:57;0.63;;;0.50;;
75814;SDS011;70031;45.570;14.228;2023-07-28T10:29:07;1.02;;;0.80;;
75814;SDS011;70031;45.570;14.228;2023-07-28T10:31:18;2.60;;;0.80;;
75814;SDS011;70031;45.570;14.228;2023-07-28T10:33:31;1.13;;;0.70;;
75814;SDS011;70031;45.570;14.228;2023-07-28T10:35:31;1.42;;;0.90;;
75814;SDS011;70031;45.570;14.228;2023-07-28T10:37:35;2.28;;;0.88;;
75814;SDS011;70031;45.570;14.228;2023-07-28T10:39:36;3.35;;;1.35;;
75814;SDS011;70031;45.570;14.228;2023-07-28T10:41:37;0.98;;;0.70;;
75814;SDS011;70031;45.570;14.228;2023-07-28T10:43:37;1.60;;;0.80;;
75814;SDS011;70031;45.570;14.228;2023-07-28T10:45:39;2.30;;;0.75;;
75814;SDS011;70031;45.570;14.228;2023-07-28T10:47:40;1.65;;;0.98;;
75814;SDS011;70031;45.570;14.228;2023-07-28T10:49:41;1.27;;;0.70;;
75814;SDS011;70031;45.570;14.228;2023-07-28T10:51:41;1.95;;;0.90;;
75814;SDS011;70031;45.570;14.228;2023-07-28T10:53:41;1.52;;;0.77;;
75814;SDS011;70031;45.570;14.228;2023-07-28T10:55:42;1.33;;;0.75;;
75814;SDS011;70031;45.570;14.228;2023-07-28T10:57:43;2.35;;;0.90;;
75814;SDS011;70031;45.570;14.228;2023-07-28T10:59:44;2.65;;;0.80;;
75814;SDS011;70031;45.570;14.228;2023-07-28T11:01:45;1.65;;;1.02;;
75814;SDS011;70031;45.570;14.228;2023-07-28T11:03:48;1.30;;;0.93;;
75814;SDS011;70031;45.570;14.228;2023-07-28T11:05:49;1.17;;;0.98;;
75814;SDS011;70031;45.570;14.228;2023-07-28T11:07:51;1.02;;;0.70;;
75814;SDS011;70031;45.570;14.228;2023-07-28T11:09:55;2.35;;;0.90;;
75814;SDS011;70031;45.570;14.228;2023-07-28T11:11:55;1.27;;;0.90;;
75814;SDS011;70031;45.570;14.228;2023-07-28T11:13:56;1.20;;;0.65;;
75814;SDS011;70031;45.570;14.228;2023-07-28T11:15:57;1.42;;;0.90;;
75814;SDS011;70031;45.570;14.228;2023-07-28T11:17:57;1.65;;;0.70;;
75814;SDS011;70031;45.570;14.228;2023-07-28T11:19:58;1.95;;;0.80;;
75814;SDS011;70031;45.570;14.228;2023-07-28T11:21:58;1.85;;;0.90;;
75814;SDS011;70031;45.570;14.228;2023-07-28T11:23:58;1.10;;;1.00;;
75814;SDS011;70031;45.570;14.228;2023-07-28T11:25:59;1.40;;;0.90;;
75814;SDS011;70031;45.570;14.228;2023-07-28T11:28:02;2.00;;;0.90;;
75814;SDS011;70031;45.570;14.228;2023-07-28T11:30:08;1.42;;;0.77;;
75814;SDS011;70031;45.570;14.228;2023-07-28T11:32:12;1.60;;;0.88;;
75814;SDS011;70031;45.570;14.228;2023-07-28T11:34:15;0.95;;;0.63;;
75814;SDS011;70031;45.570;14.228;2023-07-28T11:36:26;1.30;;;0.90;;
75814;SDS011;70031;45.570;14.228;2023-07-28T11:38:29;1.20;;;0.90;;
75814;SDS011;70031;45.570;14.228;2023-07-28T11:40:29;1.80;;;0.90;;
75814;SDS011;70031;45.570;14.228;2023-07-28T11:42:34;1.58;;;0.95;;
75814;SDS011;70031;45.570;14.228;2023-07-28T11:44:36;1.40;;;0.82;;
75814;SDS011;70031;45.570;14.228;2023-07-28T11:46:38;1.20;;;0.82;;
75814;SDS011;70031;45.570;14.228;2023-07-28T11:48:40;0.65;;;0.60;;
75814;SDS011;70031;45.570;14.228;2023-07-28T11:50:40;1.70;;;0.82;;
75814;SDS011;70031;45.570;14.228;2023-07-28T11:52:41;1.23;;;0.70;;
75814;SDS011;70031;45.570;14.228;2023-07-28T11:54:42;1.23;;;0.80;;
75814;SDS011;70031;45.570;14.228;2023-07-28T11:56:45;1.25;;;0.80;;
75814;SDS011;70031;45.570;14.228;2023-07-28T11:58:50;1.10;;;0.98;;
75814;SDS011;70031;45.570;14.228;2023-07-28T12:00:51;1.35;;;0.73;;
75814;SDS011;70031;45.570;14.228;2023-07-28T12:02:59;1.42;;;0.90;;
75814;SDS011;70031;45.570;14.228;2023-07-28T12:05:14;3.15;;;1.02;;